This is the latest recevied weather packets stored in our database for station/object KD4WLE. If no packets are shown the sender has not sent any weather packets the latest 10 day(s).
| Time | Temp. | Humidity | Pressure | Rain* | Wind** | Luminosity | Snow |
|---|---|---|---|---|---|---|---|
| 1777846823 | 23.33° C | 73% | 1016.9 hPa | 0 mm | - | 82 W/m² | - |
| 1777846521 | 22.78° C | 73% | 1016.8 hPa | 0 mm | - | 95 W/m² | - |
| 1777846219 | 23.33° C | 73% | 1016.9 hPa | 0 mm | - | 86 W/m² | - |
| 1777845915 | 22.78° C | 74% | 1017.1 hPa | 0 mm | - | 76 W/m² | - |
| 1777845611 | 23.33° C | 74% | 1016.9 hPa | 0 mm | - | 90 W/m² | - |
| 1777845309 | 23.33° C | 73% | 1017 hPa | 0 mm | - | 91 W/m² | - |
| 1777845006 | 23.33° C | 74% | 1017 hPa | 0 mm | - | 126 W/m² | - |
| 1777844704 | 23.33° C | 75% | 1016.7 hPa | 0 mm | - | 144 W/m² | - |
| 1777844400 | 23.89° C | 74% | 1016.6 hPa | 0 mm | - | 158 W/m² | - |
| 1777844099 | 23.33° C | 74% | 1016.9 hPa | 0 mm | - | 139 W/m² | - |
| 1777843795 | 23.33° C | 74% | 1016.6 hPa | 0 mm | - | 194 W/m² | - |
| 1777843493 | 23.89° C | 73% | 1016.8 hPa | 0 mm | - | 206 W/m² | - |
| 1777843190 | 23.33° C | 74% | 1016.9 hPa | 0 mm | - | 199 W/m² | - |
| 1777842887 | 23.89° C | 75% | 1016.7 hPa | 0 mm | - | 153 W/m² | - |
| 1777842582 | 23.89° C | 73% | 1017 hPa | 0 mm | - | 216 W/m² | - |
| 1777842280 | 23.89° C | 73% | 1016.9 hPa | 0 mm | - | 164 W/m² | - |
| 1777841979 | 23.89° C | 73% | 1017 hPa | 0 mm | - | 209 W/m² | - |
| 1777841677 | 25° C | 70% | 1016.9 hPa | 0 mm | - | 419 W/m² | - |
| 1777841373 | 24.44° C | 70% | 1016.9 hPa | 0 mm | - | 523 W/m² | - |
| 1777841070 | 24.44° C | 70% | 1016.8 hPa | 0 mm | - | 475 W/m² | - |
| 1777840767 | 25° C | 70% | 1017.1 hPa | 0 mm | - | 590 W/m² | - |
| 1777840465 | 25° C | 70% | 1017.1 hPa | 0 mm | - | 591 W/m² | - |
| 1777840161 | 25° C | 70% | 1017 hPa | 0 mm | - | 604 W/m² | - |
| 1777839860 | 25° C | 69% | 1017 hPa | 0 mm | - | 624 W/m² | - |
| 1777839558 | 25° C | 71% | 1017.1 hPa | 0 mm | - | 629 W/m² | - |
* Rain latest hour (hover to see other rain measurements)
** Current wind speed in m/s (hover to see current wind gust speed)